sensor_id;sensor_type;location;lat;lon;timestamp;P1;durP1;ratioP1;P2;durP2;ratioP2
19836;SDS011;10079;55.740;37.662;2022-11-20T00:01:46;15.47;;;8.27;;
19836;SDS011;10079;55.740;37.662;2022-11-20T00:04:49;14.70;;;7.43;;
19836;SDS011;10079;55.740;37.662;2022-11-20T00:07:53;13.00;;;7.63;;
19836;SDS011;10079;55.740;37.662;2022-11-20T00:10:56;11.17;;;7.03;;
19836;SDS011;10079;55.740;37.662;2022-11-20T00:14:02;12.70;;;7.60;;
19836;SDS011;10079;55.740;37.662;2022-11-20T00:17:05;14.67;;;8.13;;
19836;SDS011;10079;55.740;37.662;2022-11-20T00:20:08;14.50;;;8.13;;
19836;SDS011;10079;55.740;37.662;2022-11-20T00:23:11;15.10;;;7.97;;
19836;SDS011;10079;55.740;37.662;2022-11-20T00:26:18;13.60;;;7.90;;
19836;SDS011;10079;55.740;37.662;2022-11-20T00:40:03;12.63;;;7.80;;
19836;SDS011;10079;55.740;37.662;2022-11-20T00:43:06;11.13;;;7.17;;
19836;SDS011;10079;55.740;37.662;2022-11-20T00:46:12;13.70;;;6.83;;
19836;SDS011;10079;55.740;37.662;2022-11-20T00:49:17;12.10;;;6.30;;
19836;SDS011;10079;55.740;37.662;2022-11-20T00:52:32;10.97;;;7.10;;
19836;SDS011;10079;55.740;37.662;2022-11-20T00:55:35;10.60;;;6.70;;
19836;SDS011;10079;55.740;37.662;2022-11-20T00:58:42;12.73;;;7.07;;
19836;SDS011;10079;55.740;37.662;2022-11-20T01:01:44;12.57;;;6.07;;
19836;SDS011;10079;55.740;37.662;2022-11-20T01:04:48;9.70;;;6.77;;
19836;SDS011;10079;55.740;37.662;2022-11-20T01:07:50;10.93;;;7.20;;
19836;SDS011;10079;55.740;37.662;2022-11-20T01:10:59;11.53;;;6.40;;
19836;SDS011;10079;55.740;37.662;2022-11-20T01:14:04;13.33;;;6.60;;
19836;SDS011;10079;55.740;37.662;2022-11-20T01:27:37;11.17;;;7.00;;
19836;SDS011;10079;55.740;37.662;2022-11-20T01:30:40;11.33;;;6.73;;
19836;SDS011;10079;55.740;37.662;2022-11-20T01:33:56;11.30;;;6.90;;
19836;SDS011;10079;55.740;37.662;2022-11-20T01:36:57;12.07;;;6.47;;
19836;SDS011;10079;55.740;37.662;2022-11-20T01:40:01;10.83;;;6.17;;
19836;SDS011;10079;55.740;37.662;2022-11-20T01:43:14;13.07;;;6.73;;
19836;SDS011;10079;55.740;37.662;2022-11-20T01:46:19;10.23;;;6.00;;
19836;SDS011;10079;55.740;37.662;2022-11-20T01:49:30;10.37;;;6.00;;
19836;SDS011;10079;55.740;37.662;2022-11-20T01:52:33;10.53;;;6.10;;
19836;SDS011;10079;55.740;37.662;2022-11-20T02:06:23;11.83;;;6.70;;
19836;SDS011;10079;55.740;37.662;2022-11-20T02:09:27;8.53;;;5.27;;
19836;SDS011;10079;55.740;37.662;2022-11-20T02:12:30;10.43;;;5.93;;
19836;SDS011;10079;55.740;37.662;2022-11-20T02:15:33;10.27;;;5.70;;
19836;SDS011;10079;55.740;37.662;2022-11-20T02:18:39;10.70;;;6.20;;
19836;SDS011;10079;55.740;37.662;2022-11-20T02:21:44;10.97;;;6.47;;
19836;SDS011;10079;55.740;37.662;2022-11-20T02:24:55;10.57;;;6.47;;
19836;SDS011;10079;55.740;37.662;2022-11-20T02:28:02;10.97;;;6.23;;
19836;SDS011;10079;55.740;37.662;2022-11-20T02:31:05;10.03;;;6.13;;
19836;SDS011;10079;55.740;37.662;2022-11-20T02:34:08;10.53;;;6.33;;
19836;SDS011;10079;55.740;37.662;2022-11-20T02:37:10;10.37;;;6.43;;
19836;SDS011;10079;55.740;37.662;2022-11-20T02:40:13;8.67;;;5.13;;
19836;SDS011;10079;55.740;37.662;2022-11-20T02:43:17;10.73;;;6.00;;
19836;SDS011;10079;55.740;37.662;2022-11-20T02:46:19;11.00;;;6.20;;
19836;SDS011;10079;55.740;37.662;2022-11-20T02:49:22;11.13;;;6.13;;
19836;SDS011;10079;55.740;37.662;2022-11-20T02:52:27;11.83;;;5.80;;
19836;SDS011;10079;55.740;37.662;2022-11-20T02:55:30;10.37;;;5.83;;
19836;SDS011;10079;55.740;37.662;2022-11-20T02:58:33;9.63;;;5.80;;
19836;SDS011;10079;55.740;37.662;2022-11-20T03:01:48;10.63;;;5.90;;
19836;SDS011;10079;55.740;37.662;2022-11-20T03:15:35;11.13;;;6.93;;
19836;SDS011;10079;55.740;37.662;2022-11-20T03:29:19;11.60;;;6.53;;
19836;SDS011;10079;55.740;37.662;2022-11-20T03:43:10;11.13;;;6.33;;
19836;SDS011;10079;55.740;37.662;2022-11-20T03:46:16;10.43;;;5.73;;
19836;SDS011;10079;55.740;37.662;2022-11-20T03:49:20;11.77;;;6.07;;
19836;SDS011;10079;55.740;37.662;2022-11-20T04:03:08;10.63;;;7.07;;
19836;SDS011;10079;55.740;37.662;2022-11-20T04:06:14;13.67;;;6.60;;
19836;SDS011;10079;55.740;37.662;2022-11-20T04:09:29;9.13;;;5.53;;
19836;SDS011;10079;55.740;37.662;2022-11-20T04:12:35;12.10;;;6.67;;
19836;SDS011;10079;55.740;37.662;2022-11-20T04:15:38;10.13;;;5.93;;
19836;SDS011;10079;55.740;37.662;2022-11-20T04:18:41;10.30;;;5.80;;
19836;SDS011;10079;55.740;37.662;2022-11-20T04:21:51;10.23;;;6.23;;
19836;SDS011;10079;55.740;37.662;2022-11-20T04:25:07;10.63;;;6.80;;
19836;SDS011;10079;55.740;37.662;2022-11-20T04:28:10;10.80;;;6.40;;
19836;SDS011;10079;55.740;37.662;2022-11-20T04:31:14;10.00;;;6.10;;
19836;SDS011;10079;55.740;37.662;2022-11-20T04:34:15;12.23;;;6.40;;
19836;SDS011;10079;55.740;37.662;2022-11-20T04:37:31;12.17;;;6.43;;
19836;SDS011;10079;55.740;37.662;2022-11-20T04:40:37;12.23;;;6.90;;
19836;SDS011;10079;55.740;37.662;2022-11-20T04:43:46;11.03;;;6.33;;
19836;SDS011;10079;55.740;37.662;2022-11-20T04:46:48;13.30;;;5.90;;
19836;SDS011;10079;55.740;37.662;2022-11-20T04:49:51;12.33;;;6.40;;
19836;SDS011;10079;55.740;37.662;2022-11-20T04:52:57;13.27;;;6.80;;
19836;SDS011;10079;55.740;37.662;2022-11-20T04:56:01;11.73;;;6.30;;
19836;SDS011;10079;55.740;37.662;2022-11-20T04:59:04;13.20;;;6.83;;
19836;SDS011;10079;55.740;37.662;2022-11-20T05:02:10;12.30;;;6.30;;
19836;SDS011;10079;55.740;37.662;2022-11-20T05:05:13;13.60;;;6.50;;
19836;SDS011;10079;55.740;37.662;2022-11-20T05:08:16;13.47;;;7.17;;
19836;SDS011;10079;55.740;37.662;2022-11-20T05:11:19;13.70;;;7.00;;
19836;SDS011;10079;55.740;37.662;2022-11-20T05:14:22;10.93;;;5.83;;
19836;SDS011;10079;55.740;37.662;2022-11-20T05:17:25;14.13;;;6.50;;
19836;SDS011;10079;55.740;37.662;2022-11-20T05:20:28;12.43;;;6.87;;
19836;SDS011;10079;55.740;37.662;2022-11-20T05:23:31;9.53;;;6.27;;
19836;SDS011;10079;55.740;37.662;2022-11-20T05:26:34;13.70;;;7.00;;
19836;SDS011;10079;55.740;37.662;2022-11-20T05:29:37;13.97;;;7.70;;
19836;SDS011;10079;55.740;37.662;2022-11-20T05:32:43;11.57;;;6.63;;
19836;SDS011;10079;55.740;37.662;2022-11-20T05:57:12;13.53;;;7.53;;
19836;SDS011;10079;55.740;37.662;2022-11-20T06:00:19;12.53;;;7.43;;
19836;SDS011;10079;55.740;37.662;2022-11-20T06:03:34;13.30;;;7.63;;
19836;SDS011;10079;55.740;37.662;2022-11-20T06:17:19;15.77;;;8.70;;
19836;SDS011;10079;55.740;37.662;2022-11-20T06:20:31;15.27;;;8.03;;
19836;SDS011;10079;55.740;37.662;2022-11-20T06:34:19;14.20;;;8.27;;
19836;SDS011;10079;55.740;37.662;2022-11-20T06:37:25;13.50;;;7.87;;
19836;SDS011;10079;55.740;37.662;2022-11-20T06:40:29;12.70;;;7.60;;
19836;SDS011;10079;55.740;37.662;2022-11-20T06:43:32;13.73;;;7.43;;
19836;SDS011;10079;55.740;37.662;2022-11-20T06:46:35;16.80;;;8.57;;
19836;SDS011;10079;55.740;37.662;2022-11-20T06:49:40;15.37;;;8.20;;
19836;SDS011;10079;55.740;37.662;2022-11-20T06:52:47;15.20;;;7.47;;
19836;SDS011;10079;55.740;37.662;2022-11-20T06:55:55;11.70;;;7.50;;
19836;SDS011;10079;55.740;37.662;2022-11-20T06:59:03;14.20;;;8.37;;
19836;SDS011;10079;55.740;37.662;2022-11-20T07:02:03;16.60;;;8.30;;
19836;SDS011;10079;55.740;37.662;2022-11-20T07:05:06;17.57;;;8.77;;
19836;SDS011;10079;55.740;37.662;2022-11-20T07:08:12;13.93;;;7.83;;
19836;SDS011;10079;55.740;37.662;2022-11-20T07:11:19;12.87;;;7.47;;
19836;SDS011;10079;55.740;37.662;2022-11-20T07:14:25;15.47;;;7.90;;
19836;SDS011;10079;55.740;37.662;2022-11-20T07:17:40;15.30;;;8.20;;
19836;SDS011;10079;55.740;37.662;2022-11-20T07:20:55;16.17;;;8.40;;
19836;SDS011;10079;55.740;37.662;2022-11-20T07:24:10;16.23;;;9.07;;
19836;SDS011;10079;55.740;37.662;2022-11-20T07:27:16;14.80;;;7.77;;
19836;SDS011;10079;55.740;37.662;2022-11-20T07:40:53;17.07;;;9.63;;
19836;SDS011;10079;55.740;37.662;2022-11-20T07:43:54;14.57;;;8.60;;
19836;SDS011;10079;55.740;37.662;2022-11-20T07:46:58;14.47;;;8.20;;
19836;SDS011;10079;55.740;37.662;2022-11-20T07:50:01;14.33;;;8.67;;
19836;SDS011;10079;55.740;37.662;2022-11-20T08:03:41;19.83;;;10.37;;
19836;SDS011;10079;55.740;37.662;2022-11-20T08:06:52;21.47;;;10.10;;
19836;SDS011;10079;55.740;37.662;2022-11-20T08:09:56;21.70;;;10.17;;
19836;SDS011;10079;55.740;37.662;2022-11-20T08:13:08;14.60;;;8.90;;
19836;SDS011;10079;55.740;37.662;2022-11-20T08:16:14;17.60;;;9.73;;
19836;SDS011;10079;55.740;37.662;2022-11-20T08:19:30;20.17;;;9.63;;
19836;SDS011;10079;55.740;37.662;2022-11-20T08:22:44;18.30;;;10.20;;
19836;SDS011;10079;55.740;37.662;2022-11-20T08:25:48;19.90;;;10.03;;
19836;SDS011;10079;55.740;37.662;2022-11-20T08:28:59;18.50;;;10.20;;
19836;SDS011;10079;55.740;37.662;2022-11-20T08:32:02;20.30;;;9.97;;
19836;SDS011;10079;55.740;37.662;2022-11-20T08:35:05;17.20;;;9.53;;
19836;SDS011;10079;55.740;37.662;2022-11-20T08:38:08;17.73;;;9.17;;
19836;SDS011;10079;55.740;37.662;2022-11-20T08:41:12;17.33;;;9.33;;
19836;SDS011;10079;55.740;37.662;2022-11-20T08:44:14;24.57;;;10.90;;
19836;SDS011;10079;55.740;37.662;2022-11-20T08:47:21;23.70;;;10.87;;
19836;SDS011;10079;55.740;37.662;2022-11-20T08:50:27;19.37;;;10.13;;
19836;SDS011;10079;55.740;37.662;2022-11-20T08:53:42;22.57;;;11.80;;
19836;SDS011;10079;55.740;37.662;2022-11-20T08:56:45;21.37;;;10.43;;
19836;SDS011;10079;55.740;37.662;2022-11-20T09:10:22;27.47;;;12.53;;
19836;SDS011;10079;55.740;37.662;2022-11-20T09:13:28;27.37;;;13.07;;
19836;SDS011;10079;55.740;37.662;2022-11-20T09:16:31;24.93;;;14.20;;
19836;SDS011;10079;55.740;37.662;2022-11-20T09:19:35;25.43;;;13.27;;
19836;SDS011;10079;55.740;37.662;2022-11-20T09:22:41;27.07;;;12.40;;
19836;SDS011;10079;55.740;37.662;2022-11-20T09:25:48;25.07;;;12.23;;
19836;SDS011;10079;55.740;37.662;2022-11-20T09:28:51;24.70;;;13.00;;
19836;SDS011;10079;55.740;37.662;2022-11-20T09:31:54;25.50;;;13.43;;
19836;SDS011;10079;55.740;37.662;2022-11-20T09:35:00;24.87;;;12.53;;
19836;SDS011;10079;55.740;37.662;2022-11-20T09:38:06;26.13;;;12.67;;
19836;SDS011;10079;55.740;37.662;2022-11-20T09:41:17;29.10;;;13.87;;
19836;SDS011;10079;55.740;37.662;2022-11-20T09:47:51;26.13;;;12.33;;
19836;SDS011;10079;55.740;37.662;2022-11-20T09:51:00;25.37;;;12.20;;
19836;SDS011;10079;55.740;37.662;2022-11-20T09:54:21;25.57;;;13.00;;
19836;SDS011;10079;55.740;37.662;2022-11-20T09:57:32;26.37;;;13.00;;
19836;SDS011;10079;55.740;37.662;2022-11-20T10:00:35;31.00;;;13.77;;
19836;SDS011;10079;55.740;37.662;2022-11-20T10:03:42;30.33;;;14.63;;
19836;SDS011;10079;55.740;37.662;2022-11-20T10:10:01;28.13;;;13.60;;
19836;SDS011;10079;55.740;37.662;2022-11-20T10:13:14;30.47;;;13.63;;
19836;SDS011;10079;55.740;37.662;2022-11-20T10:19:45;30.23;;;13.27;;
19836;SDS011;10079;55.740;37.662;2022-11-20T10:22:59;31.50;;;14.13;;
19836;SDS011;10079;55.740;37.662;2022-11-20T10:29:40;31.10;;;12.97;;
19836;SDS011;10079;55.740;37.662;2022-11-20T10:43:41;29.00;;;13.53;;
19836;SDS011;10079;55.740;37.662;2022-11-20T10:57:52;26.67;;;13.63;;
19836;SDS011;10079;55.740;37.662;2022-11-20T11:01:04;27.27;;;11.90;;
19836;SDS011;10079;55.740;37.662;2022-11-20T11:04:21;29.53;;;13.63;;
19836;SDS011;10079;55.740;37.662;2022-11-20T11:07:32;31.57;;;12.33;;
19836;SDS011;10079;55.740;37.662;2022-11-20T11:13:53;24.07;;;11.13;;
19836;SDS011;10079;55.740;37.662;2022-11-20T11:17:01;25.53;;;11.43;;
19836;SDS011;10079;55.740;37.662;2022-11-20T11:20:18;23.03;;;11.60;;
19836;SDS011;10079;55.740;37.662;2022-11-20T11:34:05;19.40;;;10.13;;
19836;SDS011;10079;55.740;37.662;2022-11-20T11:37:18;18.07;;;9.13;;
19836;SDS011;10079;55.740;37.662;2022-11-20T11:40:21;17.43;;;8.53;;
19836;SDS011;10079;55.740;37.662;2022-11-20T11:43:34;17.13;;;8.40;;
19836;SDS011;10079;55.740;37.662;2022-11-20T11:46:36;18.60;;;8.10;;
19836;SDS011;10079;55.740;37.662;2022-11-20T11:49:39;18.73;;;9.53;;
19836;SDS011;10079;55.740;37.662;2022-11-20T11:52:44;18.07;;;8.97;;
19836;SDS011;10079;55.740;37.662;2022-11-20T11:55:56;19.17;;;10.10;;
19836;SDS011;10079;55.740;37.662;2022-11-20T11:58:57;16.93;;;8.60;;
19836;SDS011;10079;55.740;37.662;2022-11-20T12:02:02;17.23;;;9.03;;
19836;SDS011;10079;55.740;37.662;2022-11-20T12:05:18;22.23;;;9.60;;
19836;SDS011;10079;55.740;37.662;2022-11-20T12:08:26;19.07;;;8.93;;
19836;SDS011;10079;55.740;37.662;2022-11-20T12:11:35;19.93;;;8.90;;
19836;SDS011;10079;55.740;37.662;2022-11-20T12:14:51;16.80;;;8.70;;
19836;SDS011;10079;55.740;37.662;2022-11-20T12:17:49;15.77;;;8.30;;
19836;SDS011;10079;55.740;37.662;2022-11-20T12:20:58;17.10;;;9.23;;
19836;SDS011;10079;55.740;37.662;2022-11-20T12:24:13;17.37;;;9.03;;
19836;SDS011;10079;55.740;37.662;2022-11-20T12:44:57;13.77;;;8.57;;
19836;SDS011;10079;55.740;37.662;2022-11-20T12:48:01;16.07;;;8.77;;
19836;SDS011;10079;55.740;37.662;2022-11-20T12:54:40;14.80;;;7.73;;
19836;SDS011;10079;55.740;37.662;2022-11-20T12:57:43;15.63;;;8.50;;
19836;SDS011;10079;55.740;37.662;2022-11-20T13:00:58;20.27;;;8.90;;
19836;SDS011;10079;55.740;37.662;2022-11-20T13:04:24;18.10;;;9.40;;
19836;SDS011;10079;55.740;37.662;2022-11-20T13:18:07;16.83;;;8.63;;
19836;SDS011;10079;55.740;37.662;2022-11-20T13:21:15;19.37;;;9.00;;
19836;SDS011;10079;55.740;37.662;2022-11-20T13:24:25;16.47;;;9.00;;
19836;SDS011;10079;55.740;37.662;2022-11-20T13:27:27;16.43;;;9.33;;
19836;SDS011;10079;55.740;37.662;2022-11-20T13:30:30;15.83;;;8.13;;
19836;SDS011;10079;55.740;37.662;2022-11-20T13:33:39;14.27;;;7.57;;
19836;SDS011;10079;55.740;37.662;2022-11-20T13:36:49;15.80;;;7.53;;
19836;SDS011;10079;55.740;37.662;2022-11-20T13:39:52;14.37;;;7.60;;
19836;SDS011;10079;55.740;37.662;2022-11-20T13:43:19;18.23;;;8.70;;
19836;SDS011;10079;55.740;37.662;2022-11-20T13:46:35;15.87;;;8.57;;
19836;SDS011;10079;55.740;37.662;2022-11-20T13:49:41;16.53;;;7.83;;
19836;SDS011;10079;55.740;37.662;2022-11-20T13:52:55;16.93;;;8.67;;
19836;SDS011;10079;55.740;37.662;2022-11-20T13:56:09;18.00;;;9.40;;
19836;SDS011;10079;55.740;37.662;2022-11-20T14:09:56;17.90;;;9.90;;
19836;SDS011;10079;55.740;37.662;2022-11-20T14:12:58;18.80;;;10.13;;
19836;SDS011;10079;55.740;37.662;2022-11-20T14:16:09;18.33;;;9.90;;
19836;SDS011;10079;55.740;37.662;2022-11-20T14:19:26;18.83;;;9.47;;
19836;SDS011;10079;55.740;37.662;2022-11-20T14:22:28;16.67;;;8.97;;
19836;SDS011;10079;55.740;37.662;2022-11-20T14:25:34;18.67;;;8.93;;
19836;SDS011;10079;55.740;37.662;2022-11-20T14:28:41;15.87;;;9.07;;
19836;SDS011;10079;55.740;37.662;2022-11-20T14:31:56;17.70;;;9.53;;
19836;SDS011;10079;55.740;37.662;2022-11-20T14:35:18;19.47;;;10.53;;
19836;SDS011;10079;55.740;37.662;2022-11-20T14:48:54;19.27;;;9.73;;
19836;SDS011;10079;55.740;37.662;2022-11-20T14:52:00;18.20;;;10.17;;
19836;SDS011;10079;55.740;37.662;2022-11-20T14:55:03;21.00;;;9.60;;
19836;SDS011;10079;55.740;37.662;2022-11-20T15:01:16;17.73;;;9.33;;
19836;SDS011;10079;55.740;37.662;2022-11-20T15:04:29;20.33;;;9.73;;
19836;SDS011;10079;55.740;37.662;2022-11-20T15:07:43;17.33;;;9.17;;
19836;SDS011;10079;55.740;37.662;2022-11-20T15:10:46;21.37;;;10.07;;
19836;SDS011;10079;55.740;37.662;2022-11-20T15:13:51;19.50;;;8.77;;
19836;SDS011;10079;55.740;37.662;2022-11-20T15:16:56;15.23;;;9.00;;
19836;SDS011;10079;55.740;37.662;2022-11-20T15:20:10;19.97;;;9.83;;
19836;SDS011;10079;55.740;37.662;2022-11-20T15:23:13;17.50;;;9.07;;
19836;SDS011;10079;55.740;37.662;2022-11-20T15:26:28;14.57;;;8.63;;
19836;SDS011;10079;55.740;37.662;2022-11-20T15:29:43;17.37;;;10.50;;
19836;SDS011;10079;55.740;37.662;2022-11-20T15:32:49;23.47;;;11.43;;
19836;SDS011;10079;55.740;37.662;2022-11-20T15:46:30;23.30;;;12.20;;
19836;SDS011;10079;55.740;37.662;2022-11-20T16:00:18;27.27;;;13.60;;
19836;SDS011;10079;55.740;37.662;2022-11-20T16:03:32;24.93;;;13.03;;
19836;SDS011;10079;55.740;37.662;2022-11-20T16:17:29;38.83;;;18.23;;
19836;SDS011;10079;55.740;37.662;2022-11-20T16:20:33;24.20;;;12.83;;
19836;SDS011;10079;55.740;37.662;2022-11-20T16:23:35;19.53;;;10.00;;
19836;SDS011;10079;55.740;37.662;2022-11-20T16:26:38;17.47;;;9.70;;
19836;SDS011;10079;55.740;37.662;2022-11-20T16:29:45;19.87;;;10.20;;
19836;SDS011;10079;55.740;37.662;2022-11-20T16:32:56;16.77;;;9.67;;
19836;SDS011;10079;55.740;37.662;2022-11-20T16:36:06;23.77;;;9.73;;
19836;SDS011;10079;55.740;37.662;2022-11-20T16:39:09;21.07;;;9.83;;
19836;SDS011;10079;55.740;37.662;2022-11-20T16:42:20;22.97;;;10.60;;
19836;SDS011;10079;55.740;37.662;2022-11-20T16:45:24;27.43;;;13.33;;
19836;SDS011;10079;55.740;37.662;2022-11-20T16:48:27;21.47;;;10.47;;
19836;SDS011;10079;55.740;37.662;2022-11-20T16:51:31;19.63;;;9.87;;
19836;SDS011;10079;55.740;37.662;2022-11-20T16:54:33;17.83;;;10.07;;
19836;SDS011;10079;55.740;37.662;2022-11-20T16:57:36;20.00;;;9.27;;
19836;SDS011;10079;55.740;37.662;2022-11-20T17:00:39;20.90;;;10.53;;
19836;SDS011;10079;55.740;37.662;2022-11-20T17:03:45;18.30;;;10.23;;
19836;SDS011;10079;55.740;37.662;2022-11-20T17:06:48;21.10;;;9.93;;
19836;SDS011;10079;55.740;37.662;2022-11-20T17:10:03;15.07;;;9.27;;
19836;SDS011;10079;55.740;37.662;2022-11-20T17:13:06;17.60;;;9.47;;
19836;SDS011;10079;55.740;37.662;2022-11-20T17:16:11;23.20;;;10.67;;
19836;SDS011;10079;55.740;37.662;2022-11-20T17:19:12;20.80;;;11.03;;
19836;SDS011;10079;55.740;37.662;2022-11-20T17:22:16;23.00;;;11.43;;
19836;SDS011;10079;55.740;37.662;2022-11-20T17:25:18;20.37;;;9.87;;
19836;SDS011;10079;55.740;37.662;2022-11-20T17:28:24;24.00;;;11.63;;
19836;SDS011;10079;55.740;37.662;2022-11-20T17:31:28;21.47;;;10.97;;
19836;SDS011;10079;55.740;37.662;2022-11-20T17:34:31;32.73;;;14.80;;
19836;SDS011;10079;55.740;37.662;2022-11-20T17:37:34;34.00;;;16.30;;
19836;SDS011;10079;55.740;37.662;2022-11-20T17:40:37;28.87;;;14.37;;
19836;SDS011;10079;55.740;37.662;2022-11-20T17:43:40;28.33;;;12.97;;
19836;SDS011;10079;55.740;37.662;2022-11-20T17:46:43;25.53;;;11.27;;
19836;SDS011;10079;55.740;37.662;2022-11-20T17:49:50;19.93;;;9.40;;
19836;SDS011;10079;55.740;37.662;2022-11-20T17:52:53;16.50;;;8.80;;
19836;SDS011;10079;55.740;37.662;2022-11-20T17:55:59;16.27;;;8.47;;
19836;SDS011;10079;55.740;37.662;2022-11-20T17:59:06;16.03;;;8.63;;
19836;SDS011;10079;55.740;37.662;2022-11-20T18:02:21;15.93;;;8.00;;
19836;SDS011;10079;55.740;37.662;2022-11-20T18:16:11;16.33;;;9.20;;
19836;SDS011;10079;55.740;37.662;2022-11-20T18:19:19;15.03;;;8.97;;
19836;SDS011;10079;55.740;37.662;2022-11-20T18:22:24;15.07;;;9.33;;
19836;SDS011;10079;55.740;37.662;2022-11-20T18:25:40;14.33;;;7.73;;
19836;SDS011;10079;55.740;37.662;2022-11-20T18:28:55;13.43;;;8.27;;
19836;SDS011;10079;55.740;37.662;2022-11-20T18:32:11;13.43;;;7.77;;
19836;SDS011;10079;55.740;37.662;2022-11-20T18:35:26;14.20;;;8.07;;
19836;SDS011;10079;55.740;37.662;2022-11-20T18:38:43;15.23;;;7.87;;
19836;SDS011;10079;55.740;37.662;2022-11-20T18:41:47;12.93;;;7.50;;
19836;SDS011;10079;55.740;37.662;2022-11-20T18:45:02;12.83;;;7.67;;
19836;SDS011;10079;55.740;37.662;2022-11-20T18:58:50;13.60;;;7.77;;
19836;SDS011;10079;55.740;37.662;2022-11-20T19:01:57;13.23;;;8.07;;
19836;SDS011;10079;55.740;37.662;2022-11-20T19:05:03;11.33;;;6.77;;
19836;SDS011;10079;55.740;37.662;2022-11-20T19:08:06;12.80;;;7.23;;
19836;SDS011;10079;55.740;37.662;2022-11-20T19:11:10;14.27;;;7.00;;
19836;SDS011;10079;55.740;37.662;2022-11-20T19:14:12;12.00;;;7.13;;
19836;SDS011;10079;55.740;37.662;2022-11-20T19:17:24;11.90;;;6.40;;
19836;SDS011;10079;55.740;37.662;2022-11-20T19:20:30;13.00;;;6.97;;
19836;SDS011;10079;55.740;37.662;2022-11-20T19:23:33;12.73;;;7.10;;
19836;SDS011;10079;55.740;37.662;2022-11-20T19:26:36;12.93;;;7.83;;
19836;SDS011;10079;55.740;37.662;2022-11-20T19:29:39;15.57;;;7.90;;
19836;SDS011;10079;55.740;37.662;2022-11-20T19:32:45;17.17;;;8.00;;
19836;SDS011;10079;55.740;37.662;2022-11-20T19:39:10;15.50;;;7.90;;
19836;SDS011;10079;55.740;37.662;2022-11-20T19:42:25;15.87;;;8.83;;
19836;SDS011;10079;55.740;37.662;2022-11-20T19:45:28;19.00;;;9.10;;
19836;SDS011;10079;55.740;37.662;2022-11-20T19:48:31;18.80;;;10.20;;
19836;SDS011;10079;55.740;37.662;2022-11-20T19:51:39;21.93;;;10.83;;
19836;SDS011;10079;55.740;37.662;2022-11-20T19:54:41;24.87;;;11.90;;
19836;SDS011;10079;55.740;37.662;2022-11-20T19:57:44;25.33;;;11.43;;
19836;SDS011;10079;55.740;37.662;2022-11-20T20:00:46;26.93;;;11.50;;
19836;SDS011;10079;55.740;37.662;2022-11-20T20:03:53;23.43;;;12.20;;
19836;SDS011;10079;55.740;37.662;2022-11-20T20:06:56;26.97;;;12.43;;
19836;SDS011;10079;55.740;37.662;2022-11-20T20:09:59;33.93;;;13.20;;
19836;SDS011;10079;55.740;37.662;2022-11-20T20:13:18;26.83;;;12.67;;
19836;SDS011;10079;55.740;37.662;2022-11-20T20:16:22;27.27;;;12.13;;
19836;SDS011;10079;55.740;37.662;2022-11-20T20:19:24;23.63;;;11.23;;
19836;SDS011;10079;55.740;37.662;2022-11-20T20:22:27;24.87;;;11.93;;
19836;SDS011;10079;55.740;37.662;2022-11-20T20:25:30;24.23;;;11.43;;
19836;SDS011;10079;55.740;37.662;2022-11-20T20:28:36;22.47;;;11.03;;
19836;SDS011;10079;55.740;37.662;2022-11-20T20:31:39;21.57;;;10.47;;
19836;SDS011;10079;55.740;37.662;2022-11-20T20:34:45;24.97;;;11.43;;
19836;SDS011;10079;55.740;37.662;2022-11-20T20:59:15;27.07;;;12.03;;
19836;SDS011;10079;55.740;37.662;2022-11-20T21:02:18;22.67;;;11.40;;
19836;SDS011;10079;55.740;37.662;2022-11-20T21:05:24;21.43;;;10.43;;
19836;SDS011;10079;55.740;37.662;2022-11-20T21:08:28;21.27;;;10.93;;
19836;SDS011;10079;55.740;37.662;2022-11-20T21:11:42;21.27;;;11.17;;
19836;SDS011;10079;55.740;37.662;2022-11-20T21:25:21;23.37;;;11.87;;
19836;SDS011;10079;55.740;37.662;2022-11-20T21:28:25;20.57;;;11.27;;
19836;SDS011;10079;55.740;37.662;2022-11-20T21:31:39;16.97;;;9.47;;
19836;SDS011;10079;55.740;37.662;2022-11-20T21:34:54;27.40;;;11.60;;
19836;SDS011;10079;55.740;37.662;2022-11-20T21:38:05;18.33;;;9.83;;
19836;SDS011;10079;55.740;37.662;2022-11-20T21:41:12;17.23;;;9.20;;
19836;SDS011;10079;55.740;37.662;2022-11-20T21:44:18;20.60;;;9.50;;
19836;SDS011;10079;55.740;37.662;2022-11-20T21:47:25;21.20;;;9.77;;
19836;SDS011;10079;55.740;37.662;2022-11-20T21:50:29;18.87;;;9.10;;
19836;SDS011;10079;55.740;37.662;2022-11-20T22:04:04;22.60;;;11.10;;
19836;SDS011;10079;55.740;37.662;2022-11-20T22:07:07;18.90;;;9.93;;
19836;SDS011;10079;55.740;37.662;2022-11-20T22:10:10;23.07;;;9.43;;
19836;SDS011;10079;55.740;37.662;2022-11-20T22:13:16;21.07;;;10.67;;
19836;SDS011;10079;55.740;37.662;2022-11-20T22:16:32;17.53;;;9.77;;
19836;SDS011;10079;55.740;37.662;2022-11-20T22:19:46;20.17;;;9.33;;
19836;SDS011;10079;55.740;37.662;2022-11-20T22:23:01;17.17;;;9.37;;
19836;SDS011;10079;55.740;37.662;2022-11-20T22:36:48;20.43;;;10.20;;
19836;SDS011;10079;55.740;37.662;2022-11-20T22:39:51;17.80;;;10.23;;
19836;SDS011;10079;55.740;37.662;2022-11-20T22:42:57;22.73;;;11.50;;
19836;SDS011;10079;55.740;37.662;2022-11-20T22:46:05;21.57;;;10.13;;
19836;SDS011;10079;55.740;37.662;2022-11-20T22:49:14;20.53;;;10.60;;
19836;SDS011;10079;55.740;37.662;2022-11-20T22:52:18;17.57;;;10.00;;
19836;SDS011;10079;55.740;37.662;2022-11-20T22:55:21;22.23;;;10.13;;
19836;SDS011;10079;55.740;37.662;2022-11-20T22:58:25;19.57;;;9.30;;
19836;SDS011;10079;55.740;37.662;2022-11-20T23:01:28;19.00;;;9.40;;
19836;SDS011;10079;55.740;37.662;2022-11-20T23:04:30;17.10;;;9.00;;
19836;SDS011;10079;55.740;37.662;2022-11-20T23:07:36;18.37;;;8.70;;
19836;SDS011;10079;55.740;37.662;2022-11-20T23:10:42;18.07;;;8.67;;
19836;SDS011;10079;55.740;37.662;2022-11-20T23:13:57;18.03;;;8.80;;
19836;SDS011;10079;55.740;37.662;2022-11-20T23:17:04;20.40;;;9.90;;
19836;SDS011;10079;55.740;37.662;2022-11-20T23:30:45;20.77;;;10.57;;
19836;SDS011;10079;55.740;37.662;2022-11-20T23:34:00;21.40;;;11.33;;
19836;SDS011;10079;55.740;37.662;2022-11-20T23:37:06;21.97;;;10.43;;
19836;SDS011;10079;55.740;37.662;2022-11-20T23:40:12;22.07;;;10.97;;
19836;SDS011;10079;55.740;37.662;2022-11-20T23:43:17;23.77;;;10.90;;
19836;SDS011;10079;55.740;37.662;2022-11-20T23:46:23;19.87;;;10.43;;
19836;SDS011;10079;55.740;37.662;2022-11-20T23:49:29;17.13;;;9.27;;
